createdAt,value
2022-09-21T00:01:27.210Z,95552.94
2022-09-21T00:03:56.920Z,95555.19
2022-09-21T00:06:26.583Z,95554.25
2022-09-21T00:08:56.581Z,95557.47
2022-09-21T00:11:27.011Z,95550.41
2022-09-21T00:13:57.817Z,95556.16
2022-09-21T00:16:26.023Z,95550.31
2022-09-21T00:18:54.256Z,95559.56
2022-09-21T00:21:22.492Z,95559.03
2022-09-21T00:23:50.467Z,95565.47
2022-09-21T00:26:21.819Z,95566.66
2022-09-21T00:28:54.778Z,95560.97
2022-09-21T00:31:24.198Z,95561.78
2022-09-21T00:33:52.835Z,95555.00
2022-09-21T00:36:23.271Z,95551.25
2022-09-21T00:38:52.599Z,95551.25
2022-09-21T00:41:22.052Z,95540.13
2022-09-21T00:44:09.082Z,95544.00
2022-09-21T00:46:40.172Z,95546.34
2022-09-21T00:49:08.642Z,95547.34
2022-09-21T00:51:37.344Z,95547.38
2022-09-21T00:54:12.304Z,95544.69
2022-09-21T00:56:42.288Z,95539.63
2022-09-21T00:59:11.482Z,95536.97
2022-09-21T01:01:39.540Z,95540.53
2022-09-21T01:04:08.787Z,95542.13
2022-09-21T01:06:39.727Z,95547.03
2022-09-21T01:09:08.024Z,95545.16
2022-09-21T01:11:53.460Z,95552.34
2022-09-21T01:14:46.052Z,95549.41
2022-09-21T01:17:19.244Z,95546.22
2022-09-21T01:20:34.862Z,95550.56
2022-09-21T01:23:38.071Z,95546.22
2022-09-21T01:26:17.084Z,95540.53
2022-09-21T01:29:17.817Z,95549.41
2022-09-21T01:31:52.391Z,95544.75
2022-09-21T01:34:25.248Z,95542.47
2022-09-21T01:36:56.016Z,95548.84
2022-09-21T01:39:26.058Z,95548.50
2022-09-21T01:41:56.235Z,95550.75
2022-09-21T01:44:33.060Z,95549.06
2022-09-21T01:47:02.776Z,95540.19
2022-09-21T01:49:35.853Z,95541.34
2022-09-21T01:52:11.408Z,95538.72
2022-09-21T01:54:44.602Z,95540.53
2022-09-21T01:57:17.907Z,95540.03
2022-09-21T01:59:54.226Z,95531.94
2022-09-21T02:02:26.085Z,95533.25
2022-09-21T02:04:54.621Z,95526.53
2022-09-21T02:07:22.818Z,95521.88
2022-09-21T02:09:50.877Z,95522.66
2022-09-21T02:12:19.452Z,95514.28
2022-09-21T02:14:50.002Z,95514.28
2022-09-21T02:17:34.431Z,95513.50
2022-09-21T02:20:10.883Z,95512.47
2022-09-21T02:22:49.762Z,95519.78
2022-09-21T02:25:26.008Z,95516.50
2022-09-21T02:27:57.252Z,95521.34
2022-09-21T02:30:28.368Z,95509.09
2022-09-21T02:33:03.396Z,95509.03
2022-09-21T02:35:37.385Z,95516.56
2022-09-21T02:38:12.286Z,95516.13
2022-09-21T02:40:45.177Z,95505.88
2022-09-21T02:43:22.539Z,95502.91
2022-09-21T02:45:55.432Z,95509.75
2022-09-21T02:48:29.107Z,95505.66
2022-09-21T02:51:00.599Z,95500.88
2022-09-21T02:53:31.879Z,95499.63
2022-09-21T02:56:02.976Z,95491.94
2022-09-21T02:58:32.647Z,95497.88
2022-09-21T03:01:02.601Z,95489.63
2022-09-21T03:03:30.671Z,95493.53
2022-09-21T03:05:59.013Z,95486.25
2022-09-21T03:08:27.040Z,95486.25
2022-09-21T03:10:55.244Z,95485.91
2022-09-21T03:13:23.195Z,95487.16
2022-09-21T03:15:51.221Z,95486.88
2022-09-21T03:18:20.490Z,95492.53
2022-09-21T03:20:48.800Z,95490.25
2022-09-21T03:23:16.684Z,95491.13
2022-09-21T03:25:45.562Z,95493.44
2022-09-21T03:28:13.986Z,95481.66
2022-09-21T03:30:42.235Z,95496.78
2022-09-21T03:33:10.245Z,95486.31
2022-09-21T03:35:40.681Z,95492.28
2022-09-21T03:38:08.962Z,95487.75
2022-09-21T03:40:36.976Z,95484.03
2022-09-21T03:43:05.059Z,95491.22
2022-09-21T03:45:32.964Z,95486.41
2022-09-21T03:48:02.490Z,95490.22
2022-09-21T03:50:31.419Z,95486.34
2022-09-21T03:53:00.695Z,95496.00
2022-09-21T03:55:29.932Z,95494.41
2022-09-21T03:57:57.879Z,95490.44
2022-09-21T04:00:25.789Z,95489.69
2022-09-21T04:02:54.107Z,95488.91
2022-09-21T04:05:22.643Z,95479.59
2022-09-21T04:07:50.624Z,95487.75
2022-09-21T04:10:22.148Z,95494.47
2022-09-21T04:12:50.715Z,95487.84
2022-09-21T04:15:20.404Z,95489.16
2022-09-21T04:17:51.781Z,95489.56
2022-09-21T04:20:21.007Z,95496.69
2022-09-21T04:22:49.072Z,95499.50
2022-09-21T04:25:17.359Z,95497.97
2022-09-21T04:27:46.695Z,95498.53
2022-09-21T04:30:18.008Z,95503.50
2022-09-21T04:32:46.573Z,95500.66
2022-09-21T04:35:14.561Z,95504.94
2022-09-21T04:37:42.767Z,95500.84
2022-09-21T04:40:10.960Z,95503.69
2022-09-21T04:42:38.905Z,95495.63
2022-09-21T04:45:09.549Z,95493.59
2022-09-21T04:47:37.477Z,95503.19
2022-09-21T04:50:06.276Z,95499.25
2022-09-21T04:52:34.234Z,95500.44
2022-09-21T04:55:02.130Z,95500.00
2022-09-21T04:57:30.116Z,95504.78
2022-09-21T04:59:58.026Z,95502.75
2022-09-21T05:02:27.326Z,95500.72
2022-09-21T05:04:55.329Z,95504.75
2022-09-21T05:07:23.223Z,95508.38
2022-09-21T05:10:05.551Z,95510.09
2022-09-21T05:12:37.571Z,95506.28
2022-09-21T05:15:08.781Z,95504.66
2022-09-21T05:17:38.335Z,95514.97
2022-09-21T05:20:07.230Z,95508.84
2022-09-21T05:22:35.159Z,95506.16
2022-09-21T05:25:03.135Z,95516.84
2022-09-21T05:27:31.055Z,95510.88
2022-09-21T05:29:59.476Z,95513.66
2022-09-21T05:32:37.378Z,95515.22
2022-09-21T05:35:14.490Z,95514.63
2022-09-21T05:37:49.168Z,95512.28
2022-09-21T05:40:17.880Z,95515.47
2022-09-21T05:42:46.559Z,95520.38
2022-09-21T05:45:16.534Z,95530.09
2022-09-21T05:47:58.725Z,95527.34
2022-09-21T05:50:47.626Z,95526.97
2022-09-21T05:53:35.665Z,95522.91
2022-09-21T05:56:08.403Z,95529.97
2022-09-21T05:58:44.210Z,95529.34
2022-09-21T06:01:21.879Z,95535.31
2022-09-21T06:03:50.534Z,95538.50
2022-09-21T06:06:20.843Z,95535.31
2022-09-21T06:08:48.866Z,95530.50
2022-09-21T06:11:17.213Z,95534.97
2022-09-21T06:13:45.129Z,95539.00
2022-09-21T06:16:13.112Z,95535.31
2022-09-21T06:18:42.422Z,95537.34
2022-09-21T06:21:10.994Z,95540.94
2022-09-21T06:23:40.349Z,95542.97
2022-09-21T06:26:08.282Z,95539.78
2022-09-21T06:28:36.239Z,95545.22
2022-09-21T06:31:04.229Z,95533.38
2022-09-21T06:33:32.261Z,95538.59
2022-09-21T06:36:01.391Z,95533.47
2022-09-21T06:38:29.697Z,95531.44
2022-09-21T06:41:02.994Z,95529.59
2022-09-21T06:43:31.230Z,95527.63
2022-09-21T06:46:01.273Z,95532.00
2022-09-21T06:48:30.471Z,95535.22
2022-09-21T06:50:59.663Z,95536.97
2022-09-21T06:53:27.694Z,95539.94
2022-09-21T06:55:55.685Z,95544.50
2022-09-21T06:58:24.996Z,95545.75
2022-09-21T07:00:53.634Z,95539.84
2022-09-21T07:03:21.694Z,95547.56
2022-09-21T07:05:49.612Z,95543.06
2022-09-21T07:11:05.501Z,95543.63
2022-09-21T07:13:35.575Z,95541.66
2022-09-21T07:16:05.918Z,95537.41
2022-09-21T07:18:42.561Z,95526.03
2022-09-21T07:21:12.334Z,95527.03
2022-09-21T07:23:40.429Z,95521.09
2022-09-21T07:26:09.907Z,95518.91
2022-09-21T07:28:39.751Z,95519.69
2022-09-21T07:31:09.300Z,95525.19
2022-09-21T07:33:37.941Z,95518.44
2022-09-21T07:36:10.567Z,95522.50
2022-09-21T07:38:40.540Z,95525.16
2022-09-21T07:41:08.518Z,95522.56
2022-09-21T07:43:36.686Z,95519.97
2022-09-21T07:46:06.398Z,95518.81
2022-09-21T07:48:34.446Z,95526.78
2022-09-21T07:51:06.245Z,95528.88
2022-09-21T07:53:34.625Z,95527.13
2022-09-21T07:56:03.729Z,95527.13
2022-09-21T07:58:49.037Z,95523.34
2022-09-21T08:01:19.132Z,95530.16
2022-09-21T08:03:50.043Z,95524.00
2022-09-21T08:06:18.085Z,95526.41
2022-09-21T08:08:48.313Z,95530.38
2022-09-21T08:11:17.248Z,95528.69
2022-09-21T08:13:45.460Z,95528.34
2022-09-21T08:16:13.479Z,95526.28
2022-09-21T08:18:43.900Z,95532.88
2022-09-21T08:21:12.611Z,95526.03
2022-09-21T08:23:42.909Z,95524.44
2022-09-21T08:26:16.484Z,95526.19
2022-09-21T08:28:44.536Z,95530.38
2022-09-21T08:31:12.471Z,95537.09
2022-09-21T08:33:40.490Z,95528.06
2022-09-21T08:36:10.462Z,95530.56
2022-09-21T08:38:39.848Z,95533.31
2022-09-21T08:41:17.443Z,95526.50
2022-09-21T08:43:49.503Z,95537.91
2022-09-21T08:46:21.285Z,95530.50
2022-09-21T08:48:55.842Z,95534.47
2022-09-21T08:51:29.587Z,95532.53
2022-09-21T08:54:01.021Z,95532.41
2022-09-21T08:56:47.116Z,95526.38
2022-09-21T08:59:17.057Z,95530.81
2022-09-21T09:01:56.480Z,95529.22
2022-09-21T09:04:44.678Z,95533.69
2022-09-21T09:07:30.355Z,95528.53
2022-09-21T09:10:18.154Z,95530.69
2022-09-21T09:13:01.303Z,95514.84
2022-09-21T09:16:04.565Z,95515.75
2022-09-21T09:18:43.705Z,95517.81
2022-09-21T09:21:26.172Z,95513.50
2022-09-21T09:24:03.723Z,95513.50
2022-09-21T09:26:37.521Z,95510.50
2022-09-21T09:29:17.408Z,95512.97
2022-09-21T09:31:46.587Z,95510.16
2022-09-21T09:34:17.984Z,95514.94
2022-09-21T09:37:04.848Z,95512.25
2022-09-21T09:39:34.425Z,95507.44
2022-09-21T09:42:17.736Z,95501.72
2022-09-21T09:45:11.992Z,95496.19
2022-09-21T09:47:50.854Z,95497.53
2022-09-21T09:50:27.155Z,95491.03
2022-09-21T09:53:05.001Z,95493.13
2022-09-21T09:55:40.132Z,95482.59
2022-09-21T09:58:17.925Z,95487.22
2022-09-21T10:00:47.092Z,95479.56
2022-09-21T10:03:20.593Z,95476.09
2022-09-21T10:05:49.107Z,95470.50
2022-09-21T10:08:43.166Z,95473.94
2022-09-21T10:11:15.438Z,95461.88
2022-09-21T10:13:44.548Z,95471.78
2022-09-21T10:16:19.951Z,95464.78
2022-09-21T10:18:50.528Z,95471.13
2022-09-21T10:21:21.515Z,95468.97
2022-09-21T10:23:52.623Z,95462.06
2022-09-21T10:26:22.837Z,95460.16
2022-09-21T10:28:59.765Z,95457.88
2022-09-21T10:31:29.999Z,95458.09
2022-09-21T10:34:11.987Z,95463.13
2022-09-21T10:36:40.152Z,95461.66
2022-09-21T10:39:13.636Z,95460.72
2022-09-21T10:41:42.970Z,95461.03
2022-09-21T10:44:17.944Z,95457.50
2022-09-21T10:46:47.095Z,95452.88
2022-09-21T10:49:21.473Z,95460.53
2022-09-21T10:51:51.813Z,95451.28
2022-09-21T10:54:24.799Z,95458.28
2022-09-21T10:56:57.247Z,95468.22
2022-09-21T10:59:28.463Z,95450.59
2022-09-21T11:01:59.085Z,95458.50
2022-09-21T11:04:35.743Z,95461.56
2022-09-21T11:07:10.952Z,95451.81
2022-09-21T11:09:45.181Z,95459.28
2022-09-21T11:12:31.124Z,95465.03
2022-09-21T11:15:04.796Z,95468.84
2022-09-21T11:17:40.065Z,95454.13
2022-09-21T11:20:20.867Z,95460.75
2022-09-21T11:23:00.624Z,95448.75
2022-09-21T11:25:38.205Z,95445.00
2022-09-21T11:28:16.848Z,95458.41
2022-09-21T11:31:06.589Z,95460.88
2022-09-21T11:33:54.717Z,95449.47
2022-09-21T11:36:33.075Z,95458.41
2022-09-21T11:39:12.079Z,95462.00
2022-09-21T11:42:11.207Z,95456.81
2022-09-21T11:44:54.993Z,95453.25
2022-09-21T11:47:38.300Z,95465.44
2022-09-21T11:50:41.895Z,95457.72
2022-09-21T11:53:30.952Z,95460.09
2022-09-21T11:56:24.242Z,95463.50
2022-09-21T11:58:58.935Z,95466.88
2022-09-21T12:01:42.849Z,95465.38
2022-09-21T12:04:31.627Z,95462.19
2022-09-21T12:07:14.122Z,95465.88
2022-09-21T12:10:00.970Z,95456.91
2022-09-21T12:12:33.837Z,95462.75
2022-09-21T12:15:08.361Z,95458.66
2022-09-21T12:17:49.583Z,95473.19
2022-09-21T12:20:25.903Z,95470.81
2022-09-21T12:23:01.078Z,95464.03
2022-09-21T12:25:34.023Z,95460.38
2022-09-21T12:28:08.166Z,95458.81
2022-09-21T12:30:40.753Z,95461.97
2022-09-21T12:33:18.926Z,95461.53
2022-09-21T12:38:22.794Z,95460.47
2022-09-21T12:40:56.616Z,95463.13
2022-09-21T12:43:35.084Z,95457.94
2022-09-21T12:46:07.363Z,95462.72
2022-09-21T12:48:38.945Z,95466.88
2022-09-21T12:51:15.638Z,95455.69
2022-09-21T12:53:50.815Z,95458.56
2022-09-21T12:56:29.945Z,95461.59
2022-09-21T12:59:24.232Z,95462.22
2022-09-21T13:01:57.805Z,95474.63
2022-09-21T13:04:43.218Z,95462.00
2022-09-21T13:07:33.943Z,95460.22
2022-09-21T13:10:08.648Z,95452.63
2022-09-21T13:12:42.723Z,95460.31
2022-09-21T13:15:16.293Z,95467.75
2022-09-21T13:17:44.788Z,95462.47
2022-09-21T13:20:20.787Z,95462.50
2022-09-21T13:22:50.526Z,95462.50
2022-09-21T13:25:24.660Z,95462.00
2022-09-21T13:28:01.764Z,95464.09
2022-09-21T13:30:42.264Z,95453.03
2022-09-21T13:33:40.610Z,95458.88
2022-09-21T13:36:35.282Z,95449.88
2022-09-21T13:39:17.434Z,95455.72
2022-09-21T13:42:02.341Z,95455.19
2022-09-21T13:44:46.317Z,95454.88
2022-09-21T13:47:14.758Z,95453.59
2022-09-21T13:49:53.237Z,95449.38
2022-09-21T13:52:47.105Z,95449.38
2022-09-21T13:55:28.352Z,95442.47
2022-09-21T13:57:59.041Z,95446.69
2022-09-21T14:00:36.014Z,95445.13
2022-09-21T14:03:07.486Z,95449.84
2022-09-21T14:05:40.490Z,95447.72
2022-09-21T14:08:27.960Z,95452.47
2022-09-21T14:10:59.984Z,95450.88
2022-09-21T14:13:33.778Z,95445.03
2022-09-21T14:16:27.999Z,95450.91
2022-09-21T14:18:56.761Z,95448.81
2022-09-21T14:21:24.707Z,95448.28
2022-09-21T14:24:21.055Z,95441.09
2022-09-21T14:26:55.274Z,95447.63
2022-09-21T14:29:28.242Z,95449.78
2022-09-21T14:31:58.375Z,95444.44
2022-09-21T14:34:31.654Z,95453.53
2022-09-21T14:37:03.791Z,95449.78
2022-09-21T14:39:36.683Z,95453.66
2022-09-21T14:42:12.465Z,95454.50
2022-09-21T14:44:42.488Z,95460.03
2022-09-21T14:47:28.525Z,95461.41
2022-09-21T14:50:15.011Z,95454.56
2022-09-21T14:53:02.786Z,95453.97
2022-09-21T14:55:43.517Z,95457.88
2022-09-21T14:58:41.686Z,95457.63
2022-09-21T15:01:38.380Z,95454.06
2022-09-21T15:04:45.908Z,95456.16
2022-09-21T15:07:58.800Z,95445.75
2022-09-21T15:10:50.813Z,95453.34
2022-09-21T15:13:43.366Z,95453.03
2022-09-21T15:16:28.382Z,95455.56
2022-09-21T15:19:12.980Z,95452.66
2022-09-21T15:21:44.475Z,95450.69
2022-09-21T15:24:20.976Z,95452.28
2022-09-21T15:26:51.555Z,95460.69
2022-09-21T15:29:27.007Z,95457.06
2022-09-21T15:31:55.917Z,95457.63
2022-09-21T15:34:25.001Z,95453.44
2022-09-21T15:36:53.708Z,95464.59
2022-09-21T15:39:27.195Z,95456.63
2022-09-21T15:42:18.031Z,95456.56
2022-09-21T15:44:50.766Z,95459.94
2022-09-21T15:47:23.208Z,95463.84
2022-09-21T15:49:52.132Z,95470.66
2022-09-21T15:52:26.549Z,95463.72
2022-09-21T15:54:59.435Z,95461.72
2022-09-21T15:57:38.935Z,95461.25
2022-09-21T16:00:22.940Z,95459.16
2022-09-21T16:02:57.124Z,95461.81
2022-09-21T16:05:26.569Z,95460.78
2022-09-21T16:08:07.099Z,95462.34
2022-09-21T16:10:40.617Z,95467.75
2022-09-21T16:13:34.076Z,95460.38
2022-09-21T16:16:05.074Z,95468.34
2022-09-21T16:18:43.271Z,95472.56
2022-09-21T16:21:20.400Z,95474.19
2022-09-21T16:23:49.831Z,95484.25
2022-09-21T16:26:24.141Z,95478.16
2022-09-21T16:28:59.657Z,95483.13
2022-09-21T16:31:45.161Z,95475.72
2022-09-21T16:34:35.325Z,95479.19
2022-09-21T16:37:18.171Z,95481.03
2022-09-21T16:39:46.094Z,95482.66
2022-09-21T16:42:15.173Z,95481.84
2022-09-21T16:44:45.157Z,95488.47
2022-09-21T16:47:16.385Z,95485.03
2022-09-21T16:49:44.834Z,95484.78
2022-09-21T16:52:12.995Z,95489.00
2022-09-21T16:54:40.991Z,95490.03
2022-09-21T16:57:08.906Z,95489.50
2022-09-21T16:59:36.794Z,95491.63
2022-09-21T17:02:06.046Z,95490.03
2022-09-21T17:04:36.592Z,95488.50
2022-09-21T17:07:06.483Z,95491.09
2022-09-21T17:09:37.860Z,95494.25
2022-09-21T17:12:08.095Z,95487.91
2022-09-21T17:14:41.819Z,95491.13
2022-09-21T17:17:15.132Z,95491.16
2022-09-21T17:19:46.582Z,95484.53
2022-09-21T17:22:17.311Z,95487.97
2022-09-21T17:24:50.764Z,95492.16
2022-09-21T17:27:21.407Z,95488.41
2022-09-21T17:29:50.601Z,95483.88
2022-09-21T17:32:21.290Z,95479.84
2022-09-21T17:34:56.312Z,95484.50
2022-09-21T17:37:25.184Z,95493.94
2022-09-21T17:39:53.767Z,95480.59
2022-09-21T17:42:25.105Z,95483.69
2022-09-21T17:45:12.418Z,95483.53
2022-09-21T17:47:41.553Z,95476.50
2022-09-21T17:50:24.170Z,95488.25
2022-09-21T17:53:10.692Z,95476.91
2022-09-21T17:55:39.819Z,95478.84
2022-09-21T17:58:20.484Z,95479.31
2022-09-21T18:00:59.254Z,95491.03
2022-09-21T18:03:30.039Z,95494.69
2022-09-21T18:06:00.839Z,95488.25
2022-09-21T18:08:30.021Z,95496.28
2022-09-21T18:11:07.722Z,95499.38
2022-09-21T18:13:44.398Z,95497.78
2022-09-21T18:16:27.129Z,95502.25
2022-09-21T18:19:06.235Z,95500.19
2022-09-21T18:21:41.828Z,95502.25
2022-09-21T18:24:19.710Z,95506.50
2022-09-21T18:26:49.165Z,95506.72
2022-09-21T18:29:40.773Z,95511.22
2022-09-21T18:32:34.747Z,95501.34
2022-09-21T18:35:16.996Z,95507.59
2022-09-21T18:37:57.861Z,95512.56
2022-09-21T18:40:33.446Z,95511.44
2022-09-21T18:43:09.629Z,95513.03
2022-09-21T18:45:41.555Z,95519.91
2022-09-21T18:48:22.705Z,95506.88
2022-09-21T18:50:58.518Z,95512.81
2022-09-21T18:53:33.977Z,95515.59
2022-09-21T18:56:02.723Z,95517.94
2022-09-21T18:58:31.221Z,95520.50
2022-09-21T19:01:00.375Z,95515.78
2022-09-21T19:03:29.160Z,95522.75
2022-09-21T19:06:13.703Z,95531.63
2022-09-21T19:08:53.607Z,95525.28
2022-09-21T19:11:31.754Z,95532.13
2022-09-21T19:14:06.841Z,95527.03
2022-09-21T19:16:37.872Z,95534.59
2022-09-21T19:19:18.830Z,95536.78
2022-09-21T19:21:53.256Z,95529.44
2022-09-21T19:24:30.606Z,95541.22
2022-09-21T19:27:10.987Z,95545.69
2022-09-21T19:30:01.542Z,95542.28
2022-09-21T19:32:36.466Z,95544.59
2022-09-21T19:35:20.431Z,95530.53
2022-09-21T19:37:49.435Z,95536.78
2022-09-21T19:40:20.989Z,95542.44
2022-09-21T19:43:00.180Z,95543.63
2022-09-21T19:45:33.154Z,95538.38
2022-09-21T19:48:10.070Z,95540.94
2022-09-21T19:50:41.976Z,95536.78
2022-09-21T19:53:30.248Z,95538.22
2022-09-21T19:56:18.566Z,95539.81
2022-09-21T19:59:05.205Z,95544.75
2022-09-21T20:01:37.555Z,95543.75
2022-09-21T20:04:07.523Z,95549.13
2022-09-21T20:06:44.324Z,95540.72
2022-09-21T20:09:17.444Z,95543.59
2022-09-21T20:11:52.087Z,95540.63
2022-09-21T20:14:29.363Z,95549.13
2022-09-21T20:16:59.310Z,95552.31
2022-09-21T20:19:38.939Z,95545.59
2022-09-21T20:22:14.187Z,95537.16
2022-09-21T20:24:51.252Z,95535.66
2022-09-21T20:27:34.873Z,95537.28
2022-09-21T20:30:03.308Z,95539.31
2022-09-21T20:32:32.076Z,95539.13
2022-09-21T20:34:59.986Z,95536.91
2022-09-21T20:37:30.215Z,95548.31
2022-09-21T20:39:58.192Z,95547.50
2022-09-21T20:42:26.890Z,95546.47
2022-09-21T20:44:56.212Z,95543.75
2022-09-21T20:47:24.116Z,95552.66
2022-09-21T20:49:52.294Z,95549.91
2022-09-21T20:52:20.384Z,95553.78
2022-09-21T20:54:49.570Z,95549.34
2022-09-21T20:57:18.318Z,95543.53
2022-09-21T20:59:46.261Z,95548.13
2022-09-21T21:02:16.713Z,95544.25
2022-09-21T21:04:44.672Z,95540.84
2022-09-21T21:07:12.647Z,95542.78
2022-09-21T21:09:40.550Z,95548.72
2022-09-21T21:12:09.466Z,95541.53
2022-09-21T21:14:37.847Z,95546.78
2022-09-21T21:17:06.712Z,95539.94
2022-09-21T21:19:36.028Z,95549.06
2022-09-21T21:22:03.984Z,95548.03
2022-09-21T21:24:44.198Z,95551.81
2022-09-21T21:27:16.459Z,95548.84
2022-09-21T21:29:46.203Z,95554.56
2022-09-21T21:32:15.012Z,95550.13
2022-09-21T21:34:44.582Z,95551.59
2022-09-21T21:37:14.057Z,95562.28
2022-09-21T21:39:41.964Z,95558.06
2022-09-21T21:42:10.211Z,95561.81
2022-09-21T21:44:38.188Z,95560.13
2022-09-21T21:47:34.729Z,95556.44
2022-09-21T21:49:56.394Z,95555.09
2022-09-21T21:52:24.325Z,95551.56
2022-09-21T21:54:52.407Z,95561.38
2022-09-21T21:57:20.367Z,95558.41
2022-09-21T21:59:48.231Z,95556.38
2022-09-21T22:02:16.492Z,95561.72
2022-09-21T22:04:44.412Z,95563.31
2022-09-21T22:07:13.679Z,95558.63
2022-09-21T22:09:41.659Z,95554.19
2022-09-21T22:12:10.179Z,95553.75
2022-09-21T22:14:38.099Z,95553.41
2022-09-21T22:17:06.182Z,95543.81
2022-09-21T22:19:34.312Z,95540.97
2022-09-21T22:22:02.239Z,95551.13
2022-09-21T22:24:31.590Z,95549.53
2022-09-21T22:26:59.521Z,95547.13
2022-09-21T22:29:27.533Z,95548.72
2022-09-21T22:31:55.609Z,95539.03
2022-09-21T22:34:23.605Z,95543.72
2022-09-21T22:36:51.752Z,95540.50
2022-09-21T22:39:19.963Z,95539.94
2022-09-21T22:41:49.494Z,95538.75
2022-09-21T22:44:17.584Z,95538.06
2022-09-21T22:46:45.554Z,95534.88
2022-09-21T22:49:13.499Z,95535.69
2022-09-21T22:51:41.463Z,95544.34
2022-09-21T22:54:09.376Z,95533.28
2022-09-21T22:56:37.362Z,95537.06
2022-09-21T22:59:07.136Z,95541.25
2022-09-21T23:01:36.957Z,95544.13
2022-09-21T23:04:06.714Z,95542.63
2022-09-21T23:06:36.498Z,95546.50
2022-09-21T23:09:07.558Z,95542.19
2022-09-21T23:11:37.250Z,95542.19
2022-09-21T23:14:06.837Z,95540.13
2022-09-21T23:16:35.184Z,95545.38
2022-09-21T23:19:03.469Z,95546.28
2022-09-21T23:21:31.924Z,95543.75
2022-09-21T23:24:01.705Z,95546.34
2022-09-21T23:26:31.228Z,95551.25
2022-09-21T23:29:01.146Z,95554.44
2022-09-21T23:31:32.218Z,95548.06
2022-09-21T23:34:04.793Z,95549.66
2022-09-21T23:36:33.211Z,95556.50
2022-09-21T23:39:01.320Z,95550.09
2022-09-21T23:41:30.523Z,95548.50
2022-09-21T23:43:59.378Z,95550.56
2022-09-21T23:46:29.301Z,95550.56
2022-09-21T23:48:58.836Z,95545.31
2022-09-21T23:51:27.757Z,95555.44
2022-09-21T23:53:55.655Z,95548.16
2022-09-21T23:56:24.647Z,95550.56
2022-09-21T23:58:52.700Z,95555.69
